createdAt,value
2019-04-10T00:00:53.061Z,98689.58
2019-04-10T00:03:27.845Z,98697.36
2019-04-10T00:05:52.138Z,98690.67
2019-04-10T00:08:20.678Z,98688.87
2019-04-10T00:10:49.030Z,98689.13
2019-04-10T00:13:18.436Z,98694.02
2019-04-10T00:15:46.824Z,98685.53
2019-04-10T00:18:15.907Z,98685.42
2019-04-10T00:20:44.879Z,98686.35
2019-04-10T00:23:13.390Z,98682.41
2019-04-10T00:25:41.746Z,98681.84
2019-04-10T00:28:10.134Z,98686.62
2019-04-10T00:30:38.488Z,98684.11
2019-04-10T00:33:08.120Z,98685.42
2019-04-10T00:35:37.307Z,98682.45
2019-04-10T00:38:05.768Z,98681.84
2019-04-10T00:40:35.226Z,98688.30
2019-04-10T00:43:03.641Z,98693.30
2019-04-10T00:45:32.119Z,98686.02
2019-04-10T00:48:01.658Z,98686.95
2019-04-10T00:50:30.738Z,98686.24
2019-04-10T00:52:59.245Z,98686.13
2019-04-10T00:55:28.671Z,98686.13
2019-04-10T00:57:58.175Z,98688.69
2019-04-10T01:00:26.600Z,98688.91
2019-04-10T01:02:55.015Z,98685.83
2019-04-10T01:05:23.343Z,98684.97
2019-04-10T01:07:52.012Z,98684.25
2019-04-10T01:10:20.430Z,98681.48
2019-04-10T01:12:50.352Z,98683.16
2019-04-10T01:15:18.571Z,98679.70
2019-04-10T01:17:46.969Z,98681.73
2019-04-10T01:20:15.628Z,98684.70
2019-04-10T01:22:44.154Z,98681.96
2019-04-10T01:25:12.511Z,98680.31
2019-04-10T01:27:41.159Z,98680.05
2019-04-10T01:30:10.475Z,98679.67
2019-04-10T01:32:39.799Z,98682.91
2019-04-10T01:35:08.407Z,98677.80
2019-04-10T01:37:48.818Z,98677.53
2019-04-10T01:40:08.500Z,98678.28
2019-04-10T01:42:36.925Z,98678.05
2019-04-10T01:45:06.757Z,98678.51
2019-04-10T01:47:35.280Z,98677.19
2019-04-10T01:50:04.467Z,98672.77
2019-04-10T01:52:33.243Z,98683.16
2019-04-10T01:55:03.296Z,98679.82
2019-04-10T01:57:32.484Z,98679.11
2019-04-10T02:00:00.983Z,98682.00
2019-04-10T02:02:31.637Z,98684.85
2019-04-10T02:05:00.627Z,98678.62
2019-04-10T02:07:29.942Z,98675.47
2019-04-10T02:09:59.445Z,98676.33
2019-04-10T02:12:28.396Z,98679.41
2019-04-10T02:14:56.928Z,98674.91
2019-04-10T02:17:25.432Z,98675.13
2019-04-10T02:19:54.548Z,98678.92
2019-04-10T02:22:23.175Z,98682.63
2019-04-10T02:24:53.497Z,98677.44
2019-04-10T02:27:22.718Z,98675.91
2019-04-10T02:29:52.331Z,98681.39
2019-04-10T02:32:21.201Z,98684.01
2019-04-10T02:34:50.675Z,98684.88
2019-04-10T02:37:19.377Z,98686.52
2019-04-10T02:39:52.150Z,98683.23
2019-04-10T02:42:18.648Z,98680.66
2019-04-10T02:44:48.362Z,98673.66
2019-04-10T02:47:19.032Z,98674.83
2019-04-10T02:49:49.054Z,98678.03
2019-04-10T02:52:17.459Z,98684.45
2019-04-10T02:54:46.108Z,98679.19
2019-04-10T02:57:15.062Z,98678.98
2019-04-10T02:59:45.222Z,98689.48
2019-04-10T03:02:14.111Z,98685.47
2019-04-10T03:04:42.710Z,98683.78
2019-04-10T03:07:11.578Z,98681.49
2019-04-10T03:09:52.928Z,98682.03
2019-04-10T03:12:12.355Z,98687.05
2019-04-10T03:14:41.504Z,98683.63
2019-04-10T03:17:10.631Z,98688.66
2019-04-10T03:19:38.982Z,98686.23
2019-04-10T03:22:09.003Z,98683.61
2019-04-10T03:24:38.153Z,98681.94
2019-04-10T03:27:06.534Z,98678.38
2019-04-10T03:29:35.888Z,98679.80
2019-04-10T03:32:23.632Z,98681.92
2019-04-10T03:34:54.915Z,98687.05
2019-04-10T03:37:24.417Z,98679.89
2019-04-10T03:39:55.244Z,98683.83
2019-04-10T03:42:25.266Z,98678.64
2019-04-10T03:44:54.829Z,98677.77
2019-04-10T03:47:23.387Z,98677.97
2019-04-10T03:49:51.986Z,98686.12
2019-04-10T03:52:21.108Z,98683.11
2019-04-10T03:54:49.621Z,98682.73
2019-04-10T03:57:18.435Z,98685.84
2019-04-10T03:59:47.606Z,98692.31
2019-04-10T04:02:16.148Z,98686.45
2019-04-10T04:04:44.679Z,98684.28
2019-04-10T04:07:13.462Z,98687.16
2019-04-10T04:09:42.014Z,98685.45
2019-04-10T04:12:10.792Z,98686.40
2019-04-10T04:14:39.169Z,98692.75
2019-04-10T04:17:08.115Z,98692.75
2019-04-10T04:19:38.005Z,98696.96
2019-04-10T04:22:06.541Z,98692.91
2019-04-10T04:24:35.760Z,98701.45
2019-04-10T04:27:04.814Z,98704.78
2019-04-10T04:29:34.694Z,98703.03
2019-04-10T04:32:03.483Z,98700.86
2019-04-10T04:34:31.843Z,98708.49
2019-04-10T04:37:00.446Z,98704.27
2019-04-10T04:39:30.040Z,98699.45
2019-04-10T04:41:58.930Z,98701.43
2019-04-10T04:44:29.164Z,98706.61
2019-04-10T04:46:58.890Z,98711.27
2019-04-10T04:49:28.394Z,98711.66
2019-04-10T04:51:57.955Z,98707.31
2019-04-10T04:54:26.621Z,98714.73
2019-04-10T04:56:56.142Z,98711.75
2019-04-10T04:59:24.581Z,98713.89
2019-04-10T05:01:53.021Z,98714.39
2019-04-10T05:04:21.569Z,98713.55
2019-04-10T05:06:50.168Z,98718.45
2019-04-10T05:09:30.201Z,98720.02
2019-04-10T05:11:48.981Z,98715.58
2019-04-10T05:14:17.548Z,98721.37
2019-04-10T05:16:45.924Z,98719.25
2019-04-10T05:19:14.380Z,98725.87
2019-04-10T05:21:43.632Z,98724.27
2019-04-10T05:24:12.103Z,98733.16
2019-04-10T05:26:40.605Z,98735.40
2019-04-10T05:29:09.058Z,98732.54
2019-04-10T05:31:37.455Z,98737.63
2019-04-10T05:34:06.183Z,98735.99
2019-04-10T05:36:34.836Z,98740.34
2019-04-10T05:39:04.907Z,98745.98
2019-04-10T05:41:33.600Z,98740.55
2019-04-10T05:44:02.776Z,98738.83
2019-04-10T05:46:32.498Z,98741.03
2019-04-10T05:49:01.161Z,98747.00
2019-04-10T05:51:29.556Z,98748.37
2019-04-10T05:53:58.087Z,98760.00
2019-04-10T05:56:26.505Z,98755.70
2019-04-10T05:58:54.917Z,98755.38
2019-04-10T06:01:32.364Z,98755.70
2019-04-10T06:03:54.579Z,98757.31
2019-04-10T06:06:24.155Z,98760.72
2019-04-10T06:08:52.631Z,98759.52
2019-04-10T06:11:21.059Z,98765.89
2019-04-10T06:13:50.633Z,98764.66
2019-04-10T06:16:19.557Z,98761.66
2019-04-10T06:18:48.221Z,98763.64
2019-04-10T06:21:16.699Z,98763.66
2019-04-10T06:23:45.159Z,98767.87
2019-04-10T06:26:16.433Z,98767.25
2019-04-10T06:28:43.699Z,98770.01
2019-04-10T06:31:12.523Z,98770.94
2019-04-10T06:33:40.987Z,98767.65
2019-04-10T06:36:09.463Z,98763.48
2019-04-10T06:38:37.873Z,98767.70
2019-04-10T06:41:06.323Z,98769.48
2019-04-10T06:43:34.696Z,98774.05
2019-04-10T06:46:04.226Z,98771.10
2019-04-10T06:48:32.690Z,98769.69
2019-04-10T06:51:02.050Z,98775.29
2019-04-10T06:53:31.090Z,98777.11
2019-04-10T06:56:00.644Z,98782.77
2019-04-10T06:58:29.187Z,98777.30
2019-04-10T07:00:58.316Z,98777.12
2019-04-10T07:03:45.057Z,98778.84
2019-04-10T07:06:06.330Z,98777.40
2019-04-10T07:08:27.842Z,98779.08
2019-04-10T07:11:03.376Z,98778.59
2019-04-10T07:13:26.316Z,98777.25
2019-04-10T07:15:58.115Z,98781.70
2019-04-10T07:18:24.855Z,98780.78
2019-04-10T07:20:56.408Z,98786.73
2019-04-10T07:23:27.490Z,98790.69
2019-04-10T07:25:54.879Z,98788.92
2019-04-10T07:28:23.750Z,98790.24
2019-04-10T07:30:56.714Z,98790.17
2019-04-10T07:33:22.502Z,98789.95
2019-04-10T07:35:53.729Z,98790.30
2019-04-10T07:38:21.400Z,98795.82
2019-04-10T07:40:51.284Z,98803.59
2019-04-10T07:43:25.524Z,98796.41
2019-04-10T07:45:49.877Z,98809.06
2019-04-10T07:48:18.506Z,98805.22
2019-04-10T07:50:47.523Z,98810.16
2019-04-10T07:53:16.980Z,98817.72
2019-04-10T07:55:56.690Z,98809.95
2019-04-10T07:58:15.466Z,98817.23
2019-04-10T08:00:44.815Z,98819.44
2019-04-10T08:03:13.182Z,98814.98
2019-04-10T08:05:41.862Z,98822.39
2019-04-10T08:08:10.598Z,98819.98
2019-04-10T08:10:41.188Z,98824.23
2019-04-10T08:13:09.151Z,98822.70
2019-04-10T08:15:37.846Z,98825.29
2019-04-10T08:18:06.642Z,98830.55
2019-04-10T08:20:35.070Z,98828.25
2019-04-10T08:23:03.720Z,98829.08
2019-04-10T08:25:33.228Z,98828.90
2019-04-10T08:28:02.730Z,98833.59
2019-04-10T08:30:32.135Z,98832.02
2019-04-10T08:33:02.906Z,98837.97
2019-04-10T08:35:31.541Z,98838.39
2019-04-10T08:38:01.213Z,98840.52
2019-04-10T08:40:30.460Z,98839.49
2019-04-10T08:42:59.902Z,98846.73
2019-04-10T08:45:37.474Z,98850.30
2019-04-10T08:47:59.409Z,98852.81
2019-04-10T08:50:28.167Z,98853.05
2019-04-10T08:52:57.813Z,98851.82
2019-04-10T08:55:26.344Z,98860.16
2019-04-10T08:57:55.075Z,98864.13
2019-04-10T09:00:24.702Z,98860.67
2019-04-10T09:02:53.465Z,98863.41
2019-04-10T09:05:22.029Z,98868.77
2019-04-10T09:07:50.730Z,98865.98
2019-04-10T09:10:26.047Z,98875.23
2019-04-10T09:12:55.938Z,98869.48
2019-04-10T09:15:25.780Z,98868.39
2019-04-10T09:17:56.270Z,98878.16
2019-04-10T09:20:25.277Z,98880.78
2019-04-10T09:23:13.444Z,98875.84
2019-04-10T09:25:27.586Z,98876.67
2019-04-10T09:27:56.358Z,98872.02
2019-04-10T09:30:24.824Z,98874.41
2019-04-10T09:32:54.862Z,98879.19
2019-04-10T09:35:24.634Z,98883.43
2019-04-10T09:37:54.486Z,98888.68
2019-04-10T09:40:24.431Z,98886.78
2019-04-10T09:42:55.554Z,98892.14
2019-04-10T09:45:25.173Z,98890.00
2019-04-10T09:47:55.793Z,98888.59
2019-04-10T09:50:26.225Z,98889.20
2019-04-10T09:52:54.775Z,98893.64
2019-04-10T09:55:25.111Z,98890.59
2019-04-10T09:57:57.476Z,98892.39
2019-04-10T10:00:27.852Z,98893.16
2019-04-10T10:02:59.956Z,98891.63
2019-04-10T10:05:30.727Z,98889.91
2019-04-10T10:08:00.326Z,98884.64
2019-04-10T10:10:34.426Z,98888.60
2019-04-10T10:13:03.299Z,98895.79
2019-04-10T10:15:33.541Z,98890.21
2019-04-10T10:18:06.622Z,98891.44
2019-04-10T10:20:37.748Z,98892.62
2019-04-10T10:23:06.436Z,98889.30
2019-04-10T10:25:35.324Z,98893.96
2019-04-10T10:28:04.958Z,98892.65
2019-04-10T10:30:33.848Z,98895.81
2019-04-10T10:33:03.624Z,98894.84
2019-04-10T10:35:35.535Z,98903.07
2019-04-10T10:38:05.297Z,98904.52
2019-04-10T10:40:35.909Z,98898.31
2019-04-10T10:43:06.205Z,98899.98
2019-04-10T10:45:38.736Z,98896.41
2019-04-10T10:48:11.577Z,98903.61
2019-04-10T10:50:41.552Z,98903.16
2019-04-10T10:53:12.228Z,98904.42
2019-04-10T10:55:42.056Z,98895.56
2019-04-10T10:58:11.333Z,98898.09
2019-04-10T11:00:41.093Z,98907.16
2019-04-10T11:03:10.618Z,98899.66
2019-04-10T11:05:40.821Z,98902.61
2019-04-10T11:08:15.672Z,98904.72
2019-04-10T11:10:49.137Z,98907.12
2019-04-10T11:13:15.233Z,98899.42
2019-04-10T11:15:46.003Z,98903.29
2019-04-10T11:18:15.771Z,98904.98
2019-04-10T11:20:44.780Z,98899.65
2019-04-10T11:23:13.415Z,98898.78
2019-04-10T11:25:43.868Z,98904.53
2019-04-10T11:28:16.146Z,98909.16
2019-04-10T11:30:45.052Z,98910.59
2019-04-10T11:33:18.854Z,98908.86
2019-04-10T11:35:47.714Z,98911.36
2019-04-10T11:38:17.562Z,98911.03
2019-04-10T11:40:47.729Z,98913.22
2019-04-10T11:43:16.737Z,98916.07
2019-04-10T11:48:18.220Z,98915.80
2019-04-10T11:50:46.497Z,98915.53
2019-04-10T11:53:18.697Z,98916.70
2019-04-10T11:55:51.073Z,98917.09
2019-04-10T11:58:21.558Z,98925.31
2019-04-10T12:00:52.405Z,98919.16
2019-04-10T12:03:22.197Z,98923.81
2019-04-10T12:05:55.555Z,98919.05
2019-04-10T12:08:44.755Z,98924.23
2019-04-10T12:13:26.170Z,98922.95
2019-04-10T12:15:55.465Z,98923.41
2019-04-10T12:18:24.696Z,98925.44
2019-04-10T12:20:53.630Z,98930.51
2019-04-10T12:23:25.048Z,98941.64
2019-04-10T12:25:53.706Z,98937.95
2019-04-10T12:28:22.459Z,98934.39
2019-04-10T12:30:53.306Z,98939.58
2019-04-10T12:33:21.963Z,98941.66
2019-04-10T12:35:50.903Z,98938.55
2019-04-10T12:38:19.931Z,98936.30
2019-04-10T12:40:48.788Z,98938.81
2019-04-10T12:43:20.843Z,98938.20
2019-04-10T12:45:50.697Z,98938.20
2019-04-10T12:48:20.835Z,98945.62
2019-04-10T12:50:49.544Z,98946.59
2019-04-10T12:53:23.230Z,98951.27
2019-04-10T12:55:51.727Z,98948.89
2019-04-10T12:58:20.706Z,98952.23
2019-04-10T13:00:52.171Z,98951.39
2019-04-10T13:03:21.391Z,98957.02
2019-04-10T13:05:51.442Z,98952.13
2019-04-10T13:08:22.451Z,98954.98
2019-04-10T13:10:50.544Z,98951.98
2019-04-10T13:13:19.976Z,98952.01
2019-04-10T13:15:49.546Z,98949.73
2019-04-10T13:18:18.497Z,98943.02
2019-04-10T13:20:48.332Z,98954.89
2019-04-10T13:23:17.792Z,98951.88
2019-04-10T13:25:56.434Z,98956.42
2019-04-10T13:28:17.266Z,98957.16
2019-04-10T13:30:53.192Z,98957.37
2019-04-10T13:33:18.113Z,98960.28
2019-04-10T13:35:46.742Z,98963.39
2019-04-10T13:38:24.061Z,98958.11
2019-04-10T13:40:46.000Z,98966.36
2019-04-10T13:43:16.091Z,98968.50
2019-04-10T13:45:45.825Z,98966.95
2019-04-10T13:48:16.561Z,98969.09
2019-04-10T13:50:46.569Z,98967.77
2019-04-10T13:53:19.135Z,98974.10
2019-04-10T13:55:48.605Z,98963.70
2019-04-10T13:58:17.346Z,98971.72
2019-04-10T14:00:47.493Z,98969.31
2019-04-10T14:03:16.805Z,98969.31
2019-04-10T14:05:46.642Z,98970.03
2019-04-10T14:08:18.678Z,98969.89
2019-04-10T14:10:47.191Z,98973.84
2019-04-10T14:13:17.781Z,98976.89
2019-04-10T14:15:46.769Z,98970.79
2019-04-10T14:18:16.672Z,98975.08
2019-04-10T14:20:45.710Z,98975.83
2019-04-10T14:23:18.821Z,98976.39
2019-04-10T14:26:04.459Z,98974.13
2019-04-10T14:28:35.428Z,98976.44
2019-04-10T14:31:05.729Z,98977.41
2019-04-10T14:33:36.376Z,98979.45
2019-04-10T14:36:05.605Z,98978.46
2019-04-10T14:38:34.896Z,98978.13
2019-04-10T14:41:03.383Z,98977.91
2019-04-10T14:43:32.671Z,98979.45
2019-04-10T14:46:02.635Z,98982.80
2019-04-10T14:48:32.146Z,98984.00
2019-04-10T14:51:00.794Z,98982.75
2019-04-10T14:53:29.182Z,98976.32
2019-04-10T14:55:57.770Z,98979.78
2019-04-10T14:58:28.100Z,98984.82
2019-04-10T15:00:57.752Z,98988.77
2019-04-10T15:03:26.538Z,98986.89
2019-04-10T15:05:56.962Z,98988.20
2019-04-10T15:08:25.983Z,98984.94
2019-04-10T15:10:54.517Z,98986.25
2019-04-10T15:13:24.366Z,98984.88
2019-04-10T15:15:53.104Z,98989.10
2019-04-10T15:18:22.465Z,98994.03
2019-04-10T15:20:51.254Z,98990.20
2019-04-10T15:23:20.366Z,98995.41
2019-04-10T15:25:49.258Z,98990.98
2019-04-10T15:28:19.627Z,98990.70
2019-04-10T15:30:48.006Z,98995.73
2019-04-10T15:33:18.371Z,98990.84
2019-04-10T15:35:46.992Z,98992.16
2019-04-10T15:38:15.339Z,98991.78
2019-04-10T15:40:44.078Z,98991.41
2019-04-10T15:43:12.684Z,98987.42
2019-04-10T15:45:41.090Z,98991.67
2019-04-10T15:48:10.435Z,98990.09
2019-04-10T15:50:39.389Z,98989.38
2019-04-10T15:53:07.979Z,98988.66
2019-04-10T15:55:36.366Z,98994.71
2019-04-10T15:58:06.551Z,98994.48
2019-04-10T16:00:35.747Z,98998.53
2019-04-10T16:03:05.033Z,98996.88
2019-04-10T16:05:33.493Z,98996.39
2019-04-10T16:08:02.996Z,99000.73
2019-04-10T16:10:33.221Z,99002.48
2019-04-10T16:13:22.016Z,98997.59
2019-04-10T16:15:50.694Z,98999.73
2019-04-10T16:18:21.107Z,98998.11
2019-04-10T16:20:51.224Z,99003.53
2019-04-10T16:23:21.925Z,98999.27
2019-04-10T16:25:54.467Z,98998.56
2019-04-10T16:28:22.918Z,99002.45
2019-04-10T16:30:51.343Z,98997.52
2019-04-10T16:33:19.926Z,99004.28
2019-04-10T16:35:48.399Z,98999.14
2019-04-10T16:38:16.786Z,99001.14
2019-04-10T16:40:45.900Z,99003.02
2019-04-10T16:43:15.905Z,98997.44
2019-04-10T16:45:44.413Z,99002.30
2019-04-10T16:48:13.038Z,99004.91
2019-04-10T16:50:41.491Z,99002.00
2019-04-10T16:53:09.899Z,99011.82
2019-04-10T16:55:38.375Z,99008.18
2019-04-10T16:58:07.571Z,99010.96
2019-04-10T17:00:36.178Z,99005.13
2019-04-10T17:03:04.735Z,99008.17
2019-04-10T17:05:34.877Z,98999.45
2019-04-10T17:08:03.679Z,99010.37
2019-04-10T17:10:32.428Z,99009.45
2019-04-10T17:13:00.872Z,99005.89
2019-04-10T17:15:30.222Z,99011.32
2019-04-10T17:17:58.959Z,99015.02
2019-04-10T17:20:28.753Z,99015.61
2019-04-10T17:22:58.408Z,99015.20
2019-04-10T17:25:28.358Z,99018.62
2019-04-10T17:27:57.031Z,99020.14
2019-04-10T17:30:25.567Z,99025.02
2019-04-10T17:32:54.312Z,99022.59
2019-04-10T17:35:23.365Z,99028.06
2019-04-10T17:37:51.934Z,99021.97
2019-04-10T17:40:30.156Z,99029.27
2019-04-10T17:42:51.055Z,99035.58
2019-04-10T17:45:20.616Z,99032.48
2019-04-10T17:47:49.418Z,99040.56
2019-04-10T17:50:18.432Z,99035.14
2019-04-10T17:52:47.268Z,99038.36
2019-04-10T17:55:15.787Z,99043.00
2019-04-10T17:57:45.961Z,99044.45
2019-04-10T18:00:21.041Z,99043.03
2019-04-10T18:02:50.754Z,99050.34
2019-04-10T18:05:20.372Z,99059.77
2019-04-10T18:07:49.212Z,99051.70
2019-04-10T18:10:17.987Z,99059.82
2019-04-10T18:12:46.378Z,99060.56
2019-04-10T18:15:15.741Z,99065.20
2019-04-10T18:17:44.165Z,99066.31
2019-04-10T18:20:13.157Z,99070.25
2019-04-10T18:22:42.733Z,99076.09
2019-04-10T18:25:11.921Z,99072.88
2019-04-10T18:27:40.725Z,99078.06
2019-04-10T18:30:10.012Z,99078.24
2019-04-10T18:32:38.476Z,99084.39
2019-04-10T18:35:07.304Z,99080.56
2019-04-10T18:37:37.075Z,99084.70
2019-04-10T18:40:08.868Z,99092.70
2019-04-10T18:42:40.574Z,99090.86
2019-04-10T18:45:09.323Z,99097.30
2019-04-10T18:47:39.173Z,99107.26
2019-04-10T18:50:08.011Z,99105.49
2019-04-10T18:52:37.384Z,99114.62
2019-04-10T18:55:08.015Z,99109.70
2019-04-10T18:57:36.432Z,99112.84
2019-04-10T19:00:27.853Z,99122.44
2019-04-10T19:03:07.555Z,99125.70
2019-04-10T19:05:38.397Z,99126.55
2019-04-10T19:08:07.121Z,99129.45
2019-04-10T19:10:36.550Z,99130.53
2019-04-10T19:13:05.600Z,99135.20
2019-04-10T19:15:35.113Z,99139.62
2019-04-10T19:18:03.726Z,99136.22
2019-04-10T19:20:33.071Z,99146.28
2019-04-10T19:23:01.794Z,99144.98
2019-04-10T19:25:31.004Z,99152.85
2019-04-10T19:28:00.335Z,99156.98
2019-04-10T19:30:30.931Z,99155.22
2019-04-10T19:32:59.588Z,99156.63
2019-04-10T19:35:28.807Z,99154.94
2019-04-10T19:38:03.330Z,99162.05
2019-04-10T19:40:32.036Z,99160.83
2019-04-10T19:43:01.856Z,99167.64
2019-04-10T19:45:32.085Z,99168.28
2019-04-10T19:48:01.192Z,99173.08
2019-04-10T19:50:29.753Z,99174.05
2019-04-10T19:52:58.115Z,99174.59
2019-04-10T19:55:27.480Z,99176.64
2019-04-10T19:57:56.183Z,99180.42
2019-04-10T20:00:28.400Z,99176.38
2019-04-10T20:02:57.363Z,99179.02
2019-04-10T20:05:25.880Z,99177.80
2019-04-10T20:07:55.407Z,99181.73
2019-04-10T20:10:25.405Z,99185.87
2019-04-10T20:12:55.150Z,99189.23
2019-04-10T20:15:24.690Z,99194.64
2019-04-10T20:17:53.086Z,99199.73
2019-04-10T20:20:21.542Z,99201.23
2019-04-10T20:22:50.160Z,99193.65
2019-04-10T20:25:18.584Z,99204.34
2019-04-10T20:27:50.163Z,99207.73
2019-04-10T20:30:20.573Z,99209.50
2019-04-10T20:32:56.545Z,99214.56
2019-04-10T20:35:29.167Z,99215.68
2019-04-10T20:38:01.035Z,99216.64
2019-04-10T20:40:35.805Z,99214.78
2019-04-10T20:43:09.114Z,99218.23
2019-04-10T20:45:41.922Z,99222.47
2019-04-10T20:48:14.116Z,99223.77
2019-04-10T20:50:43.898Z,99230.81
2019-04-10T20:53:14.179Z,99234.02
2019-04-10T20:55:46.040Z,99237.88
2019-04-10T20:58:19.107Z,99238.80
2019-04-10T21:00:49.837Z,99241.45
2019-04-10T21:03:21.595Z,99247.61
2019-04-10T21:05:50.832Z,99249.84
2019-04-10T21:08:19.853Z,99248.34
2019-04-10T21:10:51.379Z,99250.23
2019-04-10T21:13:22.075Z,99258.93
2019-04-10T21:15:51.613Z,99262.97
2019-04-10T21:18:21.192Z,99261.28
2019-04-10T21:20:51.500Z,99265.78
2019-04-10T21:23:23.815Z,99265.04
2019-04-10T21:25:52.908Z,99263.89
2019-04-10T21:28:26.919Z,99267.47
2019-04-10T21:31:00.864Z,99267.92
2019-04-10T21:33:37.104Z,99269.59
2019-04-10T21:36:07.350Z,99271.38
2019-04-10T21:38:38.757Z,99279.52
2019-04-10T21:41:14.227Z,99280.91
2019-04-10T21:43:43.504Z,99282.04
2019-04-10T21:46:12.296Z,99284.66
2019-04-10T21:48:42.011Z,99290.52
2019-04-10T21:51:14.504Z,99293.04
2019-04-10T21:53:43.471Z,99291.25
2019-04-10T21:56:12.513Z,99291.81
2019-04-10T21:58:41.154Z,99293.56
2019-04-10T22:01:10.406Z,99294.38
2019-04-10T22:03:38.855Z,99291.48
2019-04-10T22:06:26.073Z,99297.05
2019-04-10T22:08:56.438Z,99294.53
2019-04-10T22:11:25.318Z,99291.34
2019-04-10T22:13:54.806Z,99298.05
2019-04-10T22:16:24.783Z,99296.48
2019-04-10T22:18:54.069Z,99298.72
2019-04-10T22:21:22.873Z,99305.11
2019-04-10T22:23:51.736Z,99303.52
2019-04-10T22:26:20.081Z,99303.32
2019-04-10T22:28:49.662Z,99308.47
2019-04-10T22:31:18.198Z,99303.91
2019-04-10T22:33:46.842Z,99312.44
2019-04-10T22:36:15.318Z,99309.84
2019-04-10T22:38:44.006Z,99308.61
2019-04-10T22:41:23.621Z,99312.12
2019-04-10T22:43:42.884Z,99312.95
2019-04-10T22:46:11.381Z,99310.73
2019-04-10T22:48:39.729Z,99311.41
2019-04-10T22:51:09.611Z,99318.62
2019-04-10T22:53:38.119Z,99310.64
2019-04-10T22:56:06.935Z,99319.59
2019-04-10T22:58:35.405Z,99311.80
2019-04-10T23:01:04.722Z,99312.21
2019-04-10T23:03:33.425Z,99312.62
2019-04-10T23:06:01.810Z,99312.53
2019-04-10T23:08:30.157Z,99320.02
2019-04-10T23:10:59.487Z,99314.02
2019-04-10T23:13:27.881Z,99317.81
2019-04-10T23:15:56.261Z,99315.56
2019-04-10T23:18:25.558Z,99311.99
2019-04-10T23:20:54.271Z,99317.78
2019-04-10T23:23:23.153Z,99321.46
2019-04-10T23:25:52.964Z,99326.06
2019-04-10T23:28:21.400Z,99324.14
2019-04-10T23:30:50.891Z,99317.53
2019-04-10T23:33:19.714Z,99321.04
2019-04-10T23:35:48.173Z,99321.59
2019-04-10T23:38:17.496Z,99326.86
2019-04-10T23:40:45.990Z,99325.10
2019-04-10T23:43:17.105Z,99330.30
2019-04-10T23:45:44.441Z,99331.43
2019-04-10T23:48:12.885Z,99332.66
2019-04-10T23:50:41.253Z,99336.55
2019-04-10T23:53:09.596Z,99330.98
2019-04-10T23:55:37.971Z,99339.39
2019-04-10T23:58:07.596Z,99329.55
